Terminal Aerodrome Forecast
Issued by NWS

Home | Current Version | Previous Version | Text Only | Print | Product List | Glossary On
Versions: 1 2 3 4 5 6 7 8 9 10 11 12 13 14 15 16 17 18 19 20 21 22 23 24 25 26
582
FTUS43 KEAX 212346 CCA
TAFMKC
TAF COR
KMKC 212346Z 2200/2224 VRB04KT P6SM VCSH SCT045 BKN060
      TEMPO 2200/2204 6SM -SHRA BKN045
     FM220600 03009KT 6SM -SHRA BKN060
     FM220900 36010KT 5SM BR SCT070
     FM221400 34012KT P6SM BKN090
     FM221900 33012G20KT P6SM SCT030 BKN040=

USA.gov is the U.S. government's official web portal to all federal, state and local government web resources and services.